ADDS TAF Data INFO
IDs: Format: Raw Decoded Include METARs

Data at: 0651 UTC 19 Nov 2017

KGCK 190554Z AUTO 29007KT 10SM CLR M03/M09 A3030 RMK AO2 SLP272 T10331089 10044 21056 401111056 51003

KGCK 190543Z 1906/2006 24006KT P6SM SKC
  FM191500 21010KT P6SM SKC
  FM191800 21016G24KT P6SM SKC
  FM200000 19010KT P6SM FEW250